This is the latest recevied weather packets stored in our database for station/object NO4D. If no packets are shown the sender has not sent any weather packets the latest 10 day(s).
| Time | Temp. | Humidity | Pressure | Rain* | Wind** | Luminosity | Snow |
|---|---|---|---|---|---|---|---|
| 1777723951 | 13.33° C | 89% | 1013.2 hPa | 0 mm | - | 39 W/m² | - |
| 1777723647 | 13.33° C | 89% | 1013.1 hPa | 0 mm | - | 33 W/m² | - |
| 1777723344 | 13.33° C | 89% | 1013 hPa | 0 mm | - | 28 W/m² | - |
| 1777723042 | 13.33° C | 89% | 1013 hPa | 0 mm | - | 16 W/m² | - |
| 1777722739 | 13.33° C | 89% | 1012.6 hPa | 0 mm | - | 32 W/m² | - |
| 1777722434 | 13.33° C | 89% | 1012.8 hPa | 0 mm | - | 20 W/m² | - |
| 1777722132 | 13.33° C | 90% | 1013 hPa | 0 mm | - | 22 W/m² | - |
| 1777721829 | 13.33° C | 90% | 1013 hPa | 0 mm | - | 13 W/m² | - |
| 1777721527 | 13.33° C | 90% | 1012.5 hPa | 0 mm | - | 20 W/m² | - |
| 1777721225 | 12.78° C | 90% | 1012 hPa | 0 mm | - | 39 W/m² | - |
| 1777720922 | 12.78° C | 91% | 1011.7 hPa | 0 mm | - | 35 W/m² | - |
| 1777720619 | 12.78° C | 91% | 1011.7 hPa | 0 mm | - | 19 W/m² | - |
| 1777720317 | 12.78° C | 91% | 1012.2 hPa | 0 mm | - | 12 W/m² | - |
| 1777720014 | 12.78° C | 91% | 1012.7 hPa | 0 mm | - | 6 W/m² | - |
| 1777719711 | 12.78° C | 91% | 1012.8 hPa | 0 mm | - | 5 W/m² | - |
| 1777719409 | 12.78° C | 91% | 1012.3 hPa | 0 mm | - | 3 W/m² | - |
| 1777719106 | 12.78° C | 91% | 1012.3 hPa | 0 mm | - | 2 W/m² | - |
| 1777718803 | 12.78° C | 92% | 1012 hPa | 0 mm | - | 0 W/m² | - |
| 1777718500 | 12.78° C | 92% | 1012.3 hPa | 0 mm | - | 0 W/m² | - |
| 1777718198 | 12.78° C | 93% | 1012.2 hPa | 0 mm | - | 0 W/m² | - |
| 1777717896 | 12.78° C | 93% | 1011.8 hPa | 0 mm | - | 0 W/m² | - |
| 1777717592 | 12.78° C | 94% | 1011.6 hPa | 0 mm | - | 0 W/m² | - |
| 1777717289 | 12.78° C | 94% | 1011.6 hPa | 0 mm | - | 0 W/m² | - |
| 1777716987 | 12.78° C | 95% | 1011.6 hPa | 0 mm | - | 0 W/m² | - |
| 1777716685 | 13.33° C | 95% | 1011.7 hPa | 0 mm | - | 0 W/m² | - |
* Rain latest hour (hover to see other rain measurements)
** Current wind speed in m/s (hover to see current wind gust speed)